createdAt,value
2018-08-24T00:01:31.811Z,100992.13
2018-08-24T00:04:05.060Z,100997.88
2018-08-24T00:06:34.155Z,101000.95
2018-08-24T00:09:04.455Z,100995.19
2018-08-24T00:11:33.519Z,100993.06
2018-08-24T00:14:02.602Z,100995.97
2018-08-24T00:16:38.102Z,100990.30
2018-08-24T00:19:09.969Z,100989.03
2018-08-24T00:21:39.118Z,100984.20
2018-08-24T00:24:09.279Z,100980.73
2018-08-24T00:26:38.444Z,100972.07
2018-08-24T00:29:08.036Z,100966.30
2018-08-24T00:31:37.684Z,100954.26
2018-08-24T00:34:06.947Z,100948.98
2018-08-24T00:36:36.059Z,100941.35
2018-08-24T00:39:07.586Z,100943.86
2018-08-24T00:41:36.958Z,100942.91
2018-08-24T00:44:06.109Z,100951.40
2018-08-24T00:46:35.194Z,100955.91
2018-08-24T00:49:04.267Z,100957.66
2018-08-24T00:51:34.683Z,100961.70
2018-08-24T00:54:03.812Z,100959.86
2018-08-24T00:56:32.936Z,100961.78
2018-08-24T00:59:02.000Z,100956.67
2018-08-24T01:01:31.059Z,100959.37
2018-08-24T01:04:00.191Z,100961.78
2018-08-24T01:06:29.303Z,100955.71
2018-08-24T01:09:01.919Z,100953.88
2018-08-24T01:11:36.463Z,100951.27
2018-08-24T01:14:05.587Z,100952.34
2018-08-24T01:16:40.014Z,100947.12
2018-08-24T01:19:09.101Z,100942.91
2018-08-24T01:21:38.167Z,100944.44
2018-08-24T01:24:07.422Z,100938.84
2018-08-24T01:26:36.487Z,100942.31
2018-08-24T01:29:05.540Z,100947.50
2018-08-24T01:31:34.699Z,100949.83
2018-08-24T01:34:03.763Z,100948.30
2018-08-24T01:36:32.878Z,100941.07
2018-08-24T01:39:01.952Z,100937.12
2018-08-24T01:41:31.088Z,100931.44
2018-08-24T01:44:00.259Z,100940.02
2018-08-24T01:46:29.350Z,100935.48
2018-08-24T01:48:58.476Z,100941.73
2018-08-24T01:51:27.520Z,100936.84
2018-08-24T01:53:56.668Z,100948.30
2018-08-24T01:56:25.761Z,100950.05
2018-08-24T01:58:54.943Z,100945.52
2018-08-24T02:01:24.040Z,100950.05
2018-08-24T02:03:53.123Z,100944.05
2018-08-24T02:06:22.207Z,100951.08
2018-08-24T02:08:51.324Z,100949.14
2018-08-24T02:11:25.774Z,100943.38
2018-08-24T02:14:00.187Z,100955.80
2018-08-24T02:16:32.730Z,100954.45
2018-08-24T02:19:07.207Z,100960.62
2018-08-24T02:21:42.025Z,100949.34
2018-08-24T02:24:11.948Z,100964.27
2018-08-24T02:26:41.698Z,100966.95
2018-08-24T02:29:10.776Z,100977.36
2018-08-24T02:31:45.186Z,100982.34
2018-08-24T02:34:14.502Z,100984.24
2018-08-24T02:36:44.060Z,100994.58
2018-08-24T02:39:15.443Z,100994.86
2018-08-24T02:41:44.677Z,100994.37
2018-08-24T02:44:14.054Z,100989.25
2018-08-24T02:46:44.188Z,100990.88
2018-08-24T02:49:13.464Z,100995.78
2018-08-24T02:51:42.625Z,100995.78
2018-08-24T02:54:11.716Z,100997.05
2018-08-24T02:56:40.811Z,100991.65
2018-08-24T02:59:10.107Z,100991.53
2018-08-24T03:01:39.206Z,100992.11
2018-08-24T03:04:08.398Z,100993.45
2018-08-24T03:06:37.510Z,101004.53
2018-08-24T03:09:08.937Z,100997.33
2018-08-24T03:11:38.047Z,100996.06
2018-08-24T03:14:07.317Z,101002.72
2018-08-24T03:16:36.379Z,101007.56
2018-08-24T03:19:05.471Z,101002.91
2018-08-24T03:21:34.660Z,101015.53
2018-08-24T03:24:03.854Z,101006.00
2018-08-24T03:26:32.926Z,101012.91
2018-08-24T03:29:02.003Z,101017.44
2018-08-24T03:31:31.118Z,101018.42
2018-08-24T03:34:00.189Z,101018.79
2018-08-24T03:36:29.460Z,101018.02
2018-08-24T03:38:58.565Z,101012.16
2018-08-24T03:41:27.636Z,101022.06
2018-08-24T03:43:56.735Z,101015.60
2018-08-24T03:46:25.905Z,101019.65
2018-08-24T03:48:55.186Z,101016.21
2018-08-24T03:51:24.241Z,101011.09
2018-08-24T03:53:53.379Z,101019.49
2018-08-24T03:56:27.907Z,101011.67
2018-08-24T03:58:56.975Z,101016.21
2018-08-24T04:01:26.050Z,101015.81
2018-08-24T04:03:55.136Z,101014.67
2018-08-24T04:06:24.201Z,101022.19
2018-08-24T04:08:53.620Z,101022.77
2018-08-24T04:11:22.920Z,101027.87
2018-08-24T04:13:52.207Z,101024.95
2018-08-24T04:16:21.679Z,101033.25
2018-08-24T04:18:50.978Z,101032.39
2018-08-24T04:21:20.358Z,101032.66
2018-08-24T04:23:49.852Z,101036.50
2018-08-24T04:26:19.378Z,101033.23
2018-08-24T04:28:48.744Z,101032.82
2018-08-24T04:31:18.294Z,101040.43
2018-08-24T04:33:47.646Z,101038.22
2018-08-24T04:36:16.944Z,101043.92
2018-08-24T04:38:46.234Z,101051.64
2018-08-24T04:41:15.928Z,101047.88
2018-08-24T04:43:45.288Z,101052.57
2018-08-24T04:46:14.647Z,101052.98
2018-08-24T04:48:44.010Z,101054.69
2018-08-24T04:51:13.476Z,101058.66
2018-08-24T04:53:43.131Z,101062.58
2018-08-24T04:56:12.553Z,101070.95
2018-08-24T04:58:42.020Z,101067.89
2018-08-24T05:01:11.421Z,101073.56
2018-08-24T05:03:40.943Z,101077.25
2018-08-24T05:06:10.403Z,101072.01
2018-08-24T05:08:39.686Z,101075.41
2018-08-24T05:11:09.034Z,101082.03
2018-08-24T05:13:38.518Z,101085.91
2018-08-24T05:16:07.948Z,101085.64
2018-08-24T05:18:37.336Z,101092.27
2018-08-24T05:21:06.734Z,101093.03
2018-08-24T05:23:36.261Z,101095.16
2018-08-24T05:26:05.619Z,101104.39
2018-08-24T05:28:35.029Z,101109.22
2018-08-24T05:31:04.327Z,101108.42
2018-08-24T05:33:33.753Z,101108.79
2018-08-24T05:36:03.011Z,101120.95
2018-08-24T05:38:32.274Z,101123.19
2018-08-24T05:41:01.685Z,101120.08
2018-08-24T05:43:31.026Z,101123.86
2018-08-24T05:46:00.561Z,101125.70
2018-08-24T05:48:29.851Z,101125.70
2018-08-24T05:50:59.288Z,101125.41
2018-08-24T05:53:28.668Z,101119.53
2018-08-24T05:55:57.979Z,101117.69
2018-08-24T05:58:27.279Z,101123.95
2018-08-24T06:00:56.791Z,101118.09
2018-08-24T06:03:26.253Z,101120.79
2018-08-24T06:06:01.003Z,101125.41
2018-08-24T06:08:31.245Z,101125.30
2018-08-24T06:11:01.670Z,101131.01
2018-08-24T06:13:31.037Z,101129.81
2018-08-24T06:16:00.429Z,101124.41
2018-08-24T06:18:29.977Z,101121.50
2018-08-24T06:20:59.377Z,101128.66
2018-08-24T06:23:28.873Z,101131.14
2018-08-24T06:25:58.269Z,101128.72
2018-08-24T06:28:27.775Z,101133.42
2018-08-24T06:30:57.073Z,101138.73
2018-08-24T06:33:26.381Z,101136.03
2018-08-24T06:35:55.785Z,101143.46
2018-08-24T06:38:25.170Z,101143.25
2018-08-24T06:40:54.624Z,101146.31
2018-08-24T06:43:24.219Z,101149.08
2018-08-24T06:45:53.461Z,101149.64
2018-08-24T06:48:22.828Z,101151.08
2018-08-24T06:50:52.296Z,101157.90
2018-08-24T06:53:21.906Z,101163.36
2018-08-24T06:55:51.302Z,101146.50
2018-08-24T06:58:20.688Z,101160.78
2018-08-24T07:00:50.143Z,101159.48
2018-08-24T07:03:19.481Z,101158.78
2018-08-24T07:05:48.973Z,101157.60
2018-08-24T07:08:18.504Z,101166.84
2018-08-24T07:10:47.995Z,101171.58
2018-08-24T07:13:17.709Z,101174.06
2018-08-24T07:15:47.070Z,101177.34
2018-08-24T07:18:16.561Z,101185.37
2018-08-24T07:20:45.989Z,101186.01
2018-08-24T07:23:15.381Z,101189.35
2018-08-24T07:25:44.744Z,101187.91
2018-08-24T07:28:14.086Z,101182.67
2018-08-24T07:30:43.348Z,101189.31
2018-08-24T07:33:12.798Z,101184.45
2018-08-24T07:35:42.118Z,101190.52
2018-08-24T07:38:11.508Z,101197.66
2018-08-24T07:40:40.779Z,101198.64
2018-08-24T07:43:10.045Z,101194.58
2018-08-24T07:45:39.680Z,101200.63
2018-08-24T07:48:09.353Z,101211.31
2018-08-24T07:50:38.706Z,101205.50
2018-08-24T07:53:08.096Z,101217.58
2018-08-24T07:55:37.379Z,101213.60
2018-08-24T07:58:07.053Z,101196.41
2018-08-24T08:00:36.359Z,101212.16
2018-08-24T08:03:05.710Z,101216.08
2018-08-24T08:05:34.971Z,101216.58
2018-08-24T08:08:04.632Z,101215.63
2018-08-24T08:10:39.074Z,101212.73
2018-08-24T08:13:09.589Z,101224.77
2018-08-24T08:15:38.929Z,101223.50
2018-08-24T08:18:08.320Z,101217.44
2018-08-24T08:20:37.920Z,101221.20
2018-08-24T08:23:07.276Z,101210.93
2018-08-24T08:25:36.587Z,101222.33
2018-08-24T08:28:06.082Z,101227.18
2018-08-24T08:30:35.511Z,101227.78
2018-08-24T08:33:04.969Z,101225.43
2018-08-24T08:35:34.304Z,101223.12
2018-08-24T08:38:03.699Z,101219.55
2018-08-24T08:40:32.955Z,101229.00
2018-08-24T08:43:02.362Z,101226.91
2018-08-24T08:45:31.840Z,101231.00
2018-08-24T08:48:01.244Z,101238.48
2018-08-24T08:50:30.619Z,101246.21
2018-08-24T08:53:00.029Z,101239.98
2018-08-24T08:55:29.328Z,101237.55
2018-08-24T08:57:58.715Z,101230.43
2018-08-24T09:00:28.121Z,101242.46
2018-08-24T09:02:57.497Z,101248.85
2018-08-24T09:05:26.943Z,101249.27
2018-08-24T09:07:56.370Z,101247.69
2018-08-24T09:10:25.730Z,101251.70
2018-08-24T09:12:55.113Z,101257.30
2018-08-24T09:15:24.639Z,101249.56
2018-08-24T09:17:59.196Z,101252.42
2018-08-24T09:20:34.298Z,101263.39
2018-08-24T09:23:09.230Z,101254.03
2018-08-24T09:25:43.980Z,101259.20
2018-08-24T09:28:18.535Z,101272.91
2018-08-24T09:30:51.315Z,101266.67
2018-08-24T09:33:20.579Z,101270.56
2018-08-24T09:35:49.822Z,101265.88
2018-08-24T09:38:19.170Z,101270.23
2018-08-24T09:40:53.729Z,101266.28
2018-08-24T09:43:28.245Z,101267.64
2018-08-24T09:45:57.619Z,101268.13
2018-08-24T09:48:28.871Z,101273.90
2018-08-24T09:51:03.637Z,101265.80
2018-08-24T09:53:38.329Z,101264.69
2018-08-24T09:56:07.718Z,101262.77
2018-08-24T09:58:36.910Z,101260.80
2018-08-24T10:01:11.327Z,101261.49
2018-08-24T10:03:46.123Z,101268.45
2018-08-24T10:06:20.582Z,101268.91
2018-08-24T10:08:55.607Z,101272.67
2018-08-24T10:11:30.183Z,101269.47
2018-08-24T10:13:59.307Z,101266.31
2018-08-24T10:16:28.395Z,101273.44
2018-08-24T10:18:57.508Z,101270.94
2018-08-24T10:21:26.598Z,101270.17
2018-08-24T10:24:01.215Z,101275.77
2018-08-24T10:26:30.335Z,101284.16
2018-08-24T10:28:59.551Z,101270.53
2018-08-24T10:31:28.619Z,101277.28
2018-08-24T10:33:57.675Z,101274.87
2018-08-24T10:36:26.813Z,101269.09
2018-08-24T10:38:56.209Z,101271.72
2018-08-24T10:41:25.422Z,101270.54
2018-08-24T10:43:54.515Z,101258.66
2018-08-24T10:46:23.591Z,101267.25
2018-08-24T10:48:52.690Z,101264.34
2018-08-24T10:51:21.840Z,101272.24
2018-08-24T10:53:51.105Z,101275.64
2018-08-24T10:56:20.416Z,101268.82
2018-08-24T10:58:49.926Z,101280.31
2018-08-24T11:01:18.998Z,101279.53
2018-08-24T11:03:48.191Z,101278.47
2018-08-24T11:06:17.460Z,101271.89
2018-08-24T11:08:46.558Z,101273.56
2018-08-24T11:11:15.674Z,101290.80
2018-08-24T11:13:44.801Z,101277.98
2018-08-24T11:16:13.992Z,101283.46
2018-08-24T11:18:43.071Z,101289.34
2018-08-24T11:21:12.176Z,101279.70
2018-08-24T11:23:41.409Z,101279.33
2018-08-24T11:26:10.614Z,101281.17
2018-08-24T11:28:39.788Z,101282.98
2018-08-24T11:31:09.322Z,101284.36
2018-08-24T11:33:38.470Z,101283.02
2018-08-24T11:36:08.049Z,101285.51
2018-08-24T11:38:37.282Z,101278.35
2018-08-24T11:41:06.359Z,101277.98
2018-08-24T11:43:40.903Z,101283.30
2018-08-24T11:46:15.435Z,101283.67
2018-08-24T11:48:44.530Z,101288.41
2018-08-24T11:51:13.649Z,101284.90
2018-08-24T11:53:42.723Z,101275.27
2018-08-24T11:56:11.807Z,101287.80
2018-08-24T11:58:40.928Z,101287.39
2018-08-24T12:01:09.985Z,101288.28
2018-08-24T12:03:39.051Z,101280.64
2018-08-24T12:06:08.195Z,101278.63
2018-08-24T12:08:37.292Z,101294.03
2018-08-24T12:11:06.555Z,101291.92
2018-08-24T12:13:35.636Z,101293.64
2018-08-24T12:16:04.709Z,101290.46
2018-08-24T12:18:33.904Z,101289.89
2018-08-24T12:21:02.990Z,101290.27
2018-08-24T12:23:32.304Z,101284.22
2018-08-24T12:26:01.400Z,101285.05
2018-08-24T12:28:30.945Z,101286.12
2018-08-24T12:31:00.282Z,101281.77
2018-08-24T12:33:29.513Z,101287.67
2018-08-24T12:35:58.785Z,101286.53
2018-08-24T12:38:27.940Z,101284.89
2018-08-24T12:40:57.743Z,101287.77
2018-08-24T12:43:27.265Z,101292.49
2018-08-24T12:45:56.839Z,101292.00
2018-08-24T12:48:25.939Z,101282.17
2018-08-24T12:50:55.337Z,101290.45
2018-08-24T12:53:24.504Z,101292.09
2018-08-24T12:55:53.576Z,101290.85
2018-08-24T12:58:23.000Z,101297.19
2018-08-24T13:00:52.644Z,101297.19
2018-08-24T13:03:21.927Z,101285.54
2018-08-24T13:05:51.561Z,101284.76
2018-08-24T13:08:20.832Z,101279.77
2018-08-24T13:10:50.144Z,101279.28
2018-08-24T13:13:19.212Z,101281.28
2018-08-24T13:15:48.648Z,101281.98
2018-08-24T13:18:18.492Z,101282.06
2018-08-24T13:20:47.650Z,101276.86
2018-08-24T13:23:16.841Z,101264.41
2018-08-24T13:25:46.067Z,101278.88
2018-08-24T13:28:16.165Z,101263.83
2018-08-24T13:30:45.911Z,101268.44
2018-08-24T13:33:15.611Z,101273.11
2018-08-24T13:35:45.027Z,101265.94
2018-08-24T13:38:14.190Z,101269.01
2018-08-24T13:40:43.531Z,101266.27
2018-08-24T13:43:12.664Z,101263.00
2018-08-24T13:45:42.331Z,101262.81
2018-08-24T13:48:11.484Z,101256.66
2018-08-24T13:50:40.933Z,101253.18
2018-08-24T13:53:10.076Z,101244.84
2018-08-24T13:55:39.812Z,101257.22
2018-08-24T13:58:09.540Z,101247.78
2018-08-24T14:00:39.052Z,101242.45
2018-08-24T14:03:08.498Z,101247.43
2018-08-24T14:05:38.493Z,101249.83
2018-08-24T14:08:07.705Z,101243.39
2018-08-24T14:10:37.168Z,101238.61
2018-08-24T14:13:06.683Z,101236.29
2018-08-24T14:15:38.110Z,101241.60
2018-08-24T14:18:08.976Z,101234.86
2018-08-24T14:20:38.176Z,101239.20
2018-08-24T14:23:07.402Z,101238.42
2018-08-24T14:25:37.075Z,101232.91
2018-08-24T14:28:06.624Z,101239.78
2018-08-24T14:30:36.040Z,101236.50
2018-08-24T14:33:06.204Z,101223.19
2018-08-24T14:35:35.644Z,101229.84
2018-08-24T14:38:06.167Z,101230.63
2018-08-24T14:40:35.595Z,101227.93
2018-08-24T14:43:05.675Z,101227.81
2018-08-24T14:45:35.543Z,101228.39
2018-08-24T14:48:05.567Z,101230.22
2018-08-24T14:50:34.931Z,101215.02
2018-08-24T14:53:05.979Z,101216.45
2018-08-24T14:55:35.079Z,101217.59
2018-08-24T14:58:04.179Z,101220.70
2018-08-24T15:00:33.275Z,101211.83
2018-08-24T15:03:02.368Z,101213.09
2018-08-24T15:05:31.484Z,101207.02
2018-08-24T15:08:01.551Z,101208.93
2018-08-24T15:10:30.689Z,101202.38
2018-08-24T15:12:59.871Z,101201.41
2018-08-24T15:15:29.368Z,101212.50
2018-08-24T15:17:58.823Z,101207.89
2018-08-24T15:20:28.222Z,101205.48
2018-08-24T15:22:57.596Z,101210.48
2018-08-24T15:25:26.892Z,101204.02
2018-08-24T15:27:55.978Z,101204.30
2018-08-24T15:30:25.092Z,101207.49
2018-08-24T15:32:54.857Z,101199.69
2018-08-24T15:35:24.432Z,101203.45
2018-08-24T15:37:54.165Z,101195.44
2018-08-24T15:40:23.240Z,101204.80
2018-08-24T15:42:52.385Z,101201.03
2018-08-24T15:45:21.744Z,101208.16
2018-08-24T15:47:51.391Z,101204.88
2018-08-24T15:50:20.627Z,101213.17
2018-08-24T15:52:50.231Z,101206.80
2018-08-24T15:55:19.684Z,101198.34
2018-08-24T15:57:48.812Z,101205.57
2018-08-24T16:00:19.641Z,101204.11
2018-08-24T16:02:48.741Z,101198.42
2018-08-24T16:05:17.859Z,101200.26
2018-08-24T16:07:47.613Z,101195.72
2018-08-24T16:10:16.804Z,101196.20
2018-08-24T16:12:46.051Z,101191.99
2018-08-24T16:15:15.897Z,101186.59
2018-08-24T16:17:49.504Z,101188.89
2018-08-24T16:20:19.019Z,101184.27
2018-08-24T16:22:48.730Z,101183.99
2018-08-24T16:25:17.939Z,101184.66
2018-08-24T16:27:47.183Z,101174.92
2018-08-24T16:30:16.353Z,101162.70
2018-08-24T16:32:45.832Z,101170.80
2018-08-24T16:35:15.339Z,101171.08
2018-08-24T16:37:44.504Z,101163.64
2018-08-24T16:40:13.869Z,101153.83
2018-08-24T16:42:42.951Z,101152.86
2018-08-24T16:45:12.223Z,101160.86
2018-08-24T16:47:41.557Z,101161.81
2018-08-24T16:50:10.907Z,101158.45
2018-08-24T16:52:39.998Z,101159.31
2018-08-24T16:55:09.211Z,101156.33
2018-08-24T16:57:38.320Z,101158.53
2018-08-24T17:00:07.948Z,101155.55
2018-08-24T17:02:37.265Z,101151.50
2018-08-24T17:05:06.860Z,101151.29
2018-08-24T17:07:36.164Z,101136.36
2018-08-24T17:10:06.252Z,101139.34
2018-08-24T17:12:35.535Z,101138.57
2018-08-24T17:15:05.596Z,101140.20
2018-08-24T17:17:35.021Z,101128.25
2018-08-24T17:20:04.132Z,101123.64
2018-08-24T17:22:33.235Z,101117.67
2018-08-24T17:25:02.562Z,101117.84
2018-08-24T17:27:31.911Z,101116.41
2018-08-24T17:30:01.008Z,101114.98
2018-08-24T17:32:30.336Z,101114.87
2018-08-24T17:34:59.749Z,101109.59
2018-08-24T17:37:29.040Z,101104.08
2018-08-24T17:39:58.235Z,101103.34
2018-08-24T17:42:27.636Z,101097.55
2018-08-24T17:44:57.304Z,101097.46
2018-08-24T17:47:26.405Z,101091.98
2018-08-24T17:49:56.192Z,101090.14
2018-08-24T17:52:25.774Z,101079.44
2018-08-24T17:54:55.403Z,101089.74
2018-08-24T17:57:25.240Z,101080.80
2018-08-24T17:59:54.425Z,101073.48
2018-08-24T18:02:23.888Z,101080.91
2018-08-24T18:04:53.355Z,101076.27
2018-08-24T18:07:22.549Z,101082.92
2018-08-24T18:09:51.940Z,101073.68
2018-08-24T18:12:21.340Z,101068.78
2018-08-24T18:14:50.776Z,101060.69
2018-08-24T18:17:20.132Z,101063.66
2018-08-24T18:19:49.571Z,101056.03
2018-08-24T18:22:18.673Z,101061.70
2018-08-24T18:24:48.329Z,101052.58
2018-08-24T18:27:17.561Z,101051.11
2018-08-24T18:29:46.798Z,101059.01
2018-08-24T18:32:16.275Z,101041.31
2018-08-24T18:34:46.001Z,101047.65
2018-08-24T18:37:15.480Z,101041.40
2018-08-24T18:39:44.836Z,101034.77
2018-08-24T18:42:13.911Z,101037.47
2018-08-24T18:44:43.047Z,101042.09
2018-08-24T18:47:12.399Z,101043.65
2018-08-24T18:49:41.688Z,101041.04
2018-08-24T18:52:10.772Z,101035.08
2018-08-24T18:54:40.255Z,101031.98
2018-08-24T18:57:09.345Z,101033.73
2018-08-24T18:59:38.847Z,101034.22
2018-08-24T19:02:08.046Z,101025.23
2018-08-24T19:04:37.792Z,101023.14
2018-08-24T19:07:07.244Z,101017.47
2018-08-24T19:09:36.616Z,101019.67
2018-08-24T19:12:11.013Z,101009.75
2018-08-24T19:14:40.176Z,101017.06
2018-08-24T19:17:13.579Z,101000.31
2018-08-24T19:19:48.012Z,101010.52
2018-08-24T19:22:17.082Z,101017.84
2018-08-24T19:24:46.176Z,101010.61
2018-08-24T19:27:15.629Z,101006.08
2018-08-24T19:30:48.790Z,101013.09
2018-08-24T19:33:17.910Z,101018.89
2018-08-24T19:35:47.077Z,101010.03
2018-08-24T19:38:16.292Z,100997.81
2018-08-24T19:40:50.708Z,101005.91
2018-08-24T19:43:19.910Z,100999.16
2018-08-24T19:45:49.104Z,100998.09
2018-08-24T19:48:23.826Z,100986.81
2018-08-24T19:50:53.178Z,100979.37
2018-08-24T19:53:22.334Z,100972.35
2018-08-24T19:55:51.518Z,100968.98
2018-08-24T19:58:27.616Z,100971.56
2018-08-24T20:00:56.906Z,100969.48
2018-08-24T20:03:27.193Z,100969.48
2018-08-24T20:06:01.588Z,100966.38
2018-08-24T20:08:35.902Z,100956.94
2018-08-24T20:11:05.067Z,100960.04
2018-08-24T20:13:34.203Z,100955.50
2018-08-24T20:16:08.707Z,100960.70
2018-08-24T20:18:38.047Z,100943.58
2018-08-24T20:21:07.380Z,100939.90
2018-08-24T20:23:36.449Z,100952.61
2018-08-24T20:26:11.599Z,100945.78
2018-08-24T20:28:40.684Z,100948.97
2018-08-24T20:31:09.804Z,100949.44
2018-08-24T20:33:38.930Z,100951.56
2018-08-24T20:36:08.196Z,100951.77
2018-08-24T20:38:37.276Z,100944.26
2018-08-24T20:41:06.490Z,100946.47
2018-08-24T20:43:35.572Z,100947.50
2018-08-24T20:46:04.658Z,100947.62
2018-08-24T20:48:33.753Z,100949.83
2018-08-24T20:51:02.850Z,100945.59
2018-08-24T20:53:31.952Z,100982.87
2018-08-24T20:56:01.031Z,100988.84
2018-08-24T20:58:30.140Z,101020.71
2018-08-24T21:00:59.348Z,101056.33
2018-08-24T21:03:28.502Z,101067.03
2018-08-24T21:05:57.713Z,101051.89
2018-08-24T21:08:26.908Z,101037.36
2018-08-24T21:10:56.037Z,101032.29
2018-08-24T21:13:25.115Z,101026.86
2018-08-24T21:15:54.246Z,101028.50
2018-08-24T21:18:23.323Z,101050.53
2018-08-24T21:20:52.442Z,101059.69
2018-08-24T21:23:21.502Z,101075.84
2018-08-24T21:25:50.565Z,101066.70
2018-08-24T21:28:19.694Z,101050.91
2018-08-24T21:30:48.801Z,101047.34
2018-08-24T21:33:17.940Z,101041.81
2018-08-24T21:35:47.131Z,101037.45
2018-08-24T21:38:16.233Z,101035.56
2018-08-24T21:40:45.523Z,101023.72
2018-08-24T21:43:14.610Z,101020.64
2018-08-24T21:45:43.698Z,101017.81
2018-08-24T21:48:12.852Z,101008.39
2018-08-24T21:50:41.999Z,101004.52
2018-08-24T21:53:11.136Z,100995.95
2018-08-24T21:55:40.205Z,100992.81
2018-08-24T21:58:09.369Z,100987.77
2018-08-24T22:00:40.733Z,100993.75
2018-08-24T22:03:10.853Z,100984.89
2018-08-24T22:05:40.080Z,100976.80
2018-08-24T22:08:09.163Z,100966.70
2018-08-24T22:10:38.231Z,100960.92
2018-08-24T22:13:07.487Z,100959.33
2018-08-24T22:15:36.763Z,100952.80
2018-08-24T22:18:05.939Z,100945.41
2018-08-24T22:20:35.115Z,100936.06
2018-08-24T22:23:04.315Z,100930.92
2018-08-24T22:25:33.373Z,100923.82
2018-08-24T22:28:02.442Z,100915.80
2018-08-24T22:30:31.620Z,100914.27
2018-08-24T22:33:00.718Z,100904.75
2018-08-24T22:35:29.743Z,100900.44
2018-08-24T22:37:58.815Z,100894.50
2018-08-24T22:40:27.888Z,100894.50
2018-08-24T22:42:56.980Z,100893.23
2018-08-24T22:45:26.324Z,100892.08
2018-08-24T22:47:55.648Z,100893.64
2018-08-24T22:50:25.236Z,100889.31
2018-08-24T22:52:54.534Z,100889.69
2018-08-24T22:55:23.840Z,100885.16
2018-08-24T22:57:53.140Z,100883.45
2018-08-24T23:00:22.579Z,100880.95
2018-08-24T23:02:51.918Z,100884.23
2018-08-24T23:05:21.223Z,100882.13
2018-08-24T23:07:50.485Z,100877.98
2018-08-24T23:10:20.232Z,100872.36
2018-08-24T23:12:49.530Z,100865.16
2018-08-24T23:15:18.791Z,100853.63
2018-08-24T23:17:48.020Z,100851.25
2018-08-24T23:20:17.301Z,100842.02
2018-08-24T23:22:46.533Z,100839.22
2018-08-24T23:25:22.362Z,100833.45
2018-08-24T23:27:51.589Z,100827.22
2018-08-24T23:30:20.891Z,100827.20
2018-08-24T23:32:50.222Z,100824.52
2018-08-24T23:35:19.516Z,100817.78
2018-08-24T23:37:48.777Z,100822.89
2018-08-24T23:40:18.036Z,100817.51
2018-08-24T23:42:47.385Z,100811.19
2018-08-24T23:45:16.634Z,100808.29
2018-08-24T23:47:45.876Z,100836.83
2018-08-24T23:50:15.220Z,100851.25
2018-08-24T23:52:44.584Z,100864.30
2018-08-24T23:55:13.807Z,100881.72
2018-08-24T23:57:43.040Z,100881.80
